sensor_id;sensor_type;location;lat;lon;timestamp;temperature;humidity
20528;DHT22;23612;50.894;10.700;2022-11-10T00:00:41;10.20;99.90
20528;DHT22;23612;50.894;10.700;2022-11-10T00:03:08;10.20;99.90
20528;DHT22;23612;50.894;10.700;2022-11-10T00:05:36;10.10;99.90
20528;DHT22;23612;50.894;10.700;2022-11-10T00:08:07;10.10;99.90
20528;DHT22;23612;50.894;10.700;2022-11-10T00:10:35;10.00;99.90
20528;DHT22;23612;50.894;10.700;2022-11-10T00:13:30;10.00;99.90
20528;DHT22;23612;50.894;10.700;2022-11-10T00:16:01;10.00;99.90
20528;DHT22;23612;50.894;10.700;2022-11-10T00:18:46;9.90;99.90
20528;DHT22;23612;50.894;10.700;2022-11-10T00:21:13;9.90;99.90
20528;DHT22;23612;50.894;10.700;2022-11-10T00:23:40;9.90;99.90
20528;DHT22;23612;50.894;10.700;2022-11-10T00:26:17;9.90;99.90
20528;DHT22;23612;50.894;10.700;2022-11-10T00:28:44;9.90;99.90
20528;DHT22;23612;50.894;10.700;2022-11-10T00:31:11;9.80;99.90
20528;DHT22;23612;50.894;10.700;2022-11-10T00:33:38;9.80;99.90
20528;DHT22;23612;50.894;10.700;2022-11-10T00:36:04;9.80;99.90
20528;DHT22;23612;50.894;10.700;2022-11-10T00:38:29;9.80;99.90
20528;DHT22;23612;50.894;10.700;2022-11-10T00:40:58;9.80;99.90
20528;DHT22;23612;50.894;10.700;2022-11-10T00:43:24;9.70;99.90
20528;DHT22;23612;50.894;10.700;2022-11-10T00:45:49;9.70;99.90
20528;DHT22;23612;50.894;10.700;2022-11-10T00:48:15;9.70;99.90
20528;DHT22;23612;50.894;10.700;2022-11-10T00:50:40;9.60;99.90
20528;DHT22;23612;50.894;10.700;2022-11-10T00:53:06;9.50;99.90
20528;DHT22;23612;50.894;10.700;2022-11-10T00:55:31;9.50;99.90
20528;DHT22;23612;50.894;10.700;2022-11-10T00:57:57;9.40;99.90
20528;DHT22;23612;50.894;10.700;2022-11-10T01:00:22;9.30;99.90
20528;DHT22;23612;50.894;10.700;2022-11-10T01:02:48;9.40;99.90
20528;DHT22;23612;50.894;10.700;2022-11-10T01:05:14;9.30;99.90
20528;DHT22;23612;50.894;10.700;2022-11-10T01:07:39;9.20;99.90
20528;DHT22;23612;50.894;10.700;2022-11-10T01:10:05;9.10;99.90
20528;DHT22;23612;50.894;10.700;2022-11-10T01:12:31;9.10;99.90
20528;DHT22;23612;50.894;10.700;2022-11-10T01:14:56;9.10;99.90
20528;DHT22;23612;50.894;10.700;2022-11-10T01:17:22;9.00;99.90
20528;DHT22;23612;50.894;10.700;2022-11-10T01:19:47;8.90;99.90
20528;DHT22;23612;50.894;10.700;2022-11-10T01:22:13;8.90;99.90
20528;DHT22;23612;50.894;10.700;2022-11-10T01:24:38;8.90;99.90
20528;DHT22;23612;50.894;10.700;2022-11-10T01:27:04;8.90;99.90
20528;DHT22;23612;50.894;10.700;2022-11-10T01:29:29;8.90;99.90
20528;DHT22;23612;50.894;10.700;2022-11-10T01:31:55;9.00;99.90
20528;DHT22;23612;50.894;10.700;2022-11-10T01:34:21;9.00;99.90
20528;DHT22;23612;50.894;10.700;2022-11-10T01:36:46;9.00;99.90
20528;DHT22;23612;50.894;10.700;2022-11-10T01:39:12;9.00;99.90
20528;DHT22;23612;50.894;10.700;2022-11-10T01:41:37;9.00;99.90
20528;DHT22;23612;50.894;10.700;2022-11-10T01:44:23;9.00;99.90
20528;DHT22;23612;50.894;10.700;2022-11-10T01:46:49;9.10;99.90
20528;DHT22;23612;50.894;10.700;2022-11-10T01:49:18;9.00;99.90
20528;DHT22;23612;50.894;10.700;2022-11-10T01:51:53;9.10;99.90
20528;DHT22;23612;50.894;10.700;2022-11-10T01:54:25;9.10;99.90
20528;DHT22;23612;50.894;10.700;2022-11-10T01:56:55;9.10;99.90
20528;DHT22;23612;50.894;10.700;2022-11-10T01:59:26;9.00;99.90
20528;DHT22;23612;50.894;10.700;2022-11-10T02:01:55;9.00;99.90
20528;DHT22;23612;50.894;10.700;2022-11-10T02:04:23;9.00;99.90
20528;DHT22;23612;50.894;10.700;2022-11-10T02:06:49;9.00;99.90
20528;DHT22;23612;50.894;10.700;2022-11-10T02:09:15;9.00;99.90
20528;DHT22;23612;50.894;10.700;2022-11-10T02:11:42;9.00;99.90
20528;DHT22;23612;50.894;10.700;2022-11-10T02:14:08;9.10;99.90
20528;DHT22;23612;50.894;10.700;2022-11-10T02:16:34;9.10;99.90
20528;DHT22;23612;50.894;10.700;2022-11-10T02:19:16;9.10;99.90
20528;DHT22;23612;50.894;10.700;2022-11-10T02:21:42;9.10;99.90
20528;DHT22;23612;50.894;10.700;2022-11-10T02:24:08;9.10;99.90
20528;DHT22;23612;50.894;10.700;2022-11-10T02:26:35;9.10;99.90
20528;DHT22;23612;50.894;10.700;2022-11-10T02:29:03;9.10;99.90
20528;DHT22;23612;50.894;10.700;2022-11-10T02:31:29;9.00;99.90
20528;DHT22;23612;50.894;10.700;2022-11-10T02:33:54;9.00;99.90
20528;DHT22;23612;50.894;10.700;2022-11-10T02:36:20;9.00;99.90
20528;DHT22;23612;50.894;10.700;2022-11-10T02:38:45;9.00;99.90
20528;DHT22;23612;50.894;10.700;2022-11-10T02:41:11;9.00;99.90
20528;DHT22;23612;50.894;10.700;2022-11-10T02:43:37;9.00;99.90
20528;DHT22;23612;50.894;10.700;2022-11-10T02:46:03;9.00;99.90
20528;DHT22;23612;50.894;10.700;2022-11-10T02:48:28;9.00;99.90
20528;DHT22;23612;50.894;10.700;2022-11-10T02:50:54;9.00;99.90
20528;DHT22;23612;50.894;10.700;2022-11-10T02:53:20;9.00;99.90
20528;DHT22;23612;50.894;10.700;2022-11-10T02:55:45;8.90;99.90
20528;DHT22;23612;50.894;10.700;2022-11-10T02:58:11;8.90;99.90
20528;DHT22;23612;50.894;10.700;2022-11-10T03:00:37;9.00;99.90
20528;DHT22;23612;50.894;10.700;2022-11-10T03:03:02;8.90;99.90
20528;DHT22;23612;50.894;10.700;2022-11-10T03:05:29;8.90;99.90
20528;DHT22;23612;50.894;10.700;2022-11-10T03:07:59;8.90;99.90
20528;DHT22;23612;50.894;10.700;2022-11-10T03:10:26;8.90;99.90
20528;DHT22;23612;50.894;10.700;2022-11-10T03:12:56;8.90;99.90
20528;DHT22;23612;50.894;10.700;2022-11-10T03:15:23;8.80;99.90
20528;DHT22;23612;50.894;10.700;2022-11-10T03:17:49;8.80;99.90
20528;DHT22;23612;50.894;10.700;2022-11-10T03:20:15;8.80;99.90
20528;DHT22;23612;50.894;10.700;2022-11-10T03:22:41;8.70;99.90
20528;DHT22;23612;50.894;10.700;2022-11-10T03:25:07;8.70;99.90
20528;DHT22;23612;50.894;10.700;2022-11-10T03:27:33;8.70;99.90
20528;DHT22;23612;50.894;10.700;2022-11-10T03:29:59;8.70;99.90
20528;DHT22;23612;50.894;10.700;2022-11-10T03:32:24;8.60;99.90
20528;DHT22;23612;50.894;10.700;2022-11-10T03:34:51;8.60;99.90
20528;DHT22;23612;50.894;10.700;2022-11-10T03:37:16;8.70;99.90
20528;DHT22;23612;50.894;10.700;2022-11-10T03:39:42;8.80;99.90
20528;DHT22;23612;50.894;10.700;2022-11-10T03:42:07;8.80;99.90
20528;DHT22;23612;50.894;10.700;2022-11-10T03:44:33;8.90;99.90
20528;DHT22;23612;50.894;10.700;2022-11-10T03:46:58;8.90;99.90
20528;DHT22;23612;50.894;10.700;2022-11-10T03:49:25;8.90;99.90
20528;DHT22;23612;50.894;10.700;2022-11-10T03:51:51;8.90;99.90
20528;DHT22;23612;50.894;10.700;2022-11-10T03:54:16;9.00;99.90
20528;DHT22;23612;50.894;10.700;2022-11-10T03:56:42;8.90;99.90
20528;DHT22;23612;50.894;10.700;2022-11-10T03:59:08;8.90;99.90
20528;DHT22;23612;50.894;10.700;2022-11-10T04:01:33;8.90;99.90
20528;DHT22;23612;50.894;10.700;2022-11-10T04:03:58;8.80;99.90
20528;DHT22;23612;50.894;10.700;2022-11-10T04:06:24;8.80;99.90
20528;DHT22;23612;50.894;10.700;2022-11-10T04:09:08;8.70;99.90
20528;DHT22;23612;50.894;10.700;2022-11-10T04:11:34;8.60;99.90
20528;DHT22;23612;50.894;10.700;2022-11-10T04:14:18;8.60;99.90
20528;DHT22;23612;50.894;10.700;2022-11-10T04:17:02;8.50;99.90
20528;DHT22;23612;50.894;10.700;2022-11-10T04:19:28;8.50;99.90
20528;DHT22;23612;50.894;10.700;2022-11-10T04:21:54;8.40;99.90
20528;DHT22;23612;50.894;10.700;2022-11-10T04:24:20;8.40;99.90
20528;DHT22;23612;50.894;10.700;2022-11-10T04:26:46;8.40;99.90
20528;DHT22;23612;50.894;10.700;2022-11-10T04:29:14;8.40;99.90
20528;DHT22;23612;50.894;10.700;2022-11-10T04:31:40;8.40;99.90
20528;DHT22;23612;50.894;10.700;2022-11-10T04:34:08;8.40;99.90
20528;DHT22;23612;50.894;10.700;2022-11-10T04:36:36;8.40;99.90
20528;DHT22;23612;50.894;10.700;2022-11-10T04:39:03;8.40;99.90
20528;DHT22;23612;50.894;10.700;2022-11-10T04:41:29;8.40;99.90
20528;DHT22;23612;50.894;10.700;2022-11-10T04:43:56;8.40;99.90
20528;DHT22;23612;50.894;10.700;2022-11-10T04:46:25;8.40;99.90
20528;DHT22;23612;50.894;10.700;2022-11-10T04:48:52;8.50;99.90
20528;DHT22;23612;50.894;10.700;2022-11-10T04:51:19;8.50;99.90
20528;DHT22;23612;50.894;10.700;2022-11-10T04:53:45;8.50;99.90
20528;DHT22;23612;50.894;10.700;2022-11-10T04:56:14;8.50;99.90
20528;DHT22;23612;50.894;10.700;2022-11-10T04:58:40;8.50;99.90
20528;DHT22;23612;50.894;10.700;2022-11-10T05:01:05;8.60;99.90
20528;DHT22;23612;50.894;10.700;2022-11-10T05:03:31;8.60;99.90
20528;DHT22;23612;50.894;10.700;2022-11-10T05:05:56;8.60;99.90
20528;DHT22;23612;50.894;10.700;2022-11-10T05:08:22;8.70;99.90
20528;DHT22;23612;50.894;10.700;2022-11-10T05:10:48;8.80;99.90
20528;DHT22;23612;50.894;10.700;2022-11-10T05:13:13;8.90;99.90
20528;DHT22;23612;50.894;10.700;2022-11-10T05:15:39;9.10;99.90
20528;DHT22;23612;50.894;10.700;2022-11-10T05:18:07;9.20;99.90
20528;DHT22;23612;50.894;10.700;2022-11-10T05:20:32;9.30;99.90
20528;DHT22;23612;50.894;10.700;2022-11-10T05:22:58;9.40;99.90
20528;DHT22;23612;50.894;10.700;2022-11-10T05:25:42;9.40;99.90
20528;DHT22;23612;50.894;10.700;2022-11-10T05:28:10;9.40;99.90
20528;DHT22;23612;50.894;10.700;2022-11-10T05:30:36;9.30;99.90
20528;DHT22;23612;50.894;10.700;2022-11-10T05:33:02;9.30;99.90
20528;DHT22;23612;50.894;10.700;2022-11-10T05:35:28;9.20;99.90
20528;DHT22;23612;50.894;10.700;2022-11-10T05:37:53;9.20;99.90
20528;DHT22;23612;50.894;10.700;2022-11-10T05:40:19;9.10;99.90
20528;DHT22;23612;50.894;10.700;2022-11-10T05:42:46;9.10;99.90
20528;DHT22;23612;50.894;10.700;2022-11-10T05:45:12;9.00;99.90
20528;DHT22;23612;50.894;10.700;2022-11-10T05:47:38;9.10;99.90
20528;DHT22;23612;50.894;10.700;2022-11-10T05:50:05;9.00;99.90
20528;DHT22;23612;50.894;10.700;2022-11-10T05:52:30;9.00;99.90
20528;DHT22;23612;50.894;10.700;2022-11-10T05:54:56;8.90;99.90
20528;DHT22;23612;50.894;10.700;2022-11-10T05:57:22;8.90;99.90
20528;DHT22;23612;50.894;10.700;2022-11-10T05:59:47;8.90;99.90
20528;DHT22;23612;50.894;10.700;2022-11-10T06:02:13;8.80;99.90
20528;DHT22;23612;50.894;10.700;2022-11-10T06:04:38;8.80;99.90
20528;DHT22;23612;50.894;10.700;2022-11-10T06:07:04;8.80;99.90
20528;DHT22;23612;50.894;10.700;2022-11-10T06:09:29;8.80;99.90
20528;DHT22;23612;50.894;10.700;2022-11-10T06:11:55;8.80;99.90
20528;DHT22;23612;50.894;10.700;2022-11-10T06:14:21;8.70;99.90
20528;DHT22;23612;50.894;10.700;2022-11-10T06:16:46;8.80;99.90
20528;DHT22;23612;50.894;10.700;2022-11-10T06:19:12;8.80;99.90
20528;DHT22;23612;50.894;10.700;2022-11-10T06:21:37;8.80;99.90
20528;DHT22;23612;50.894;10.700;2022-11-10T06:24:03;8.80;99.90
20528;DHT22;23612;50.894;10.700;2022-11-10T06:26:29;8.80;99.90
20528;DHT22;23612;50.894;10.700;2022-11-10T06:28:54;8.80;99.90
20528;DHT22;23612;50.894;10.700;2022-11-10T06:31:20;8.80;99.90
20528;DHT22;23612;50.894;10.700;2022-11-10T06:33:45;8.80;99.90
20528;DHT22;23612;50.894;10.700;2022-11-10T06:36:13;8.90;99.90
20528;DHT22;23612;50.894;10.700;2022-11-10T06:38:39;8.80;99.90
20528;DHT22;23612;50.894;10.700;2022-11-10T06:41:05;8.80;99.90
20528;DHT22;23612;50.894;10.700;2022-11-10T06:43:30;8.80;99.90
20528;DHT22;23612;50.894;10.700;2022-11-10T06:45:59;8.90;99.90
20528;DHT22;23612;50.894;10.700;2022-11-10T06:48:24;8.90;99.90
20528;DHT22;23612;50.894;10.700;2022-11-10T06:50:50;9.00;99.90
20528;DHT22;23612;50.894;10.700;2022-11-10T06:53:19;9.00;99.90
20528;DHT22;23612;50.894;10.700;2022-11-10T06:55:44;9.10;99.90
20528;DHT22;23612;50.894;10.700;2022-11-10T06:58:10;9.20;99.90
20528;DHT22;23612;50.894;10.700;2022-11-10T07:00:35;9.20;99.90
20528;DHT22;23612;50.894;10.700;2022-11-10T07:03:03;9.30;99.90
20528;DHT22;23612;50.894;10.700;2022-11-10T07:05:29;9.40;99.90
20528;DHT22;23612;50.894;10.700;2022-11-10T07:08:10;9.60;99.90
20528;DHT22;23612;50.894;10.700;2022-11-10T07:10:40;9.70;99.90
20528;DHT22;23612;50.894;10.700;2022-11-10T07:13:06;9.80;99.90
20528;DHT22;23612;50.894;10.700;2022-11-10T07:15:31;9.90;99.90
20528;DHT22;23612;50.894;10.700;2022-11-10T07:17:58;10.00;99.90
20528;DHT22;23612;50.894;10.700;2022-11-10T07:20:24;10.10;99.90
20528;DHT22;23612;50.894;10.700;2022-11-10T07:22:56;10.10;99.90
20528;DHT22;23612;50.894;10.700;2022-11-10T07:25:22;10.20;99.90
20528;DHT22;23612;50.894;10.700;2022-11-10T07:27:53;10.40;99.90
20528;DHT22;23612;50.894;10.700;2022-11-10T07:30:18;10.50;99.90
20528;DHT22;23612;50.894;10.700;2022-11-10T07:32:44;10.60;99.90
20528;DHT22;23612;50.894;10.700;2022-11-10T07:35:10;10.90;99.90
20528;DHT22;23612;50.894;10.700;2022-11-10T07:37:35;11.10;99.90
20528;DHT22;23612;50.894;10.700;2022-11-10T07:40:01;11.30;99.90
20528;DHT22;23612;50.894;10.700;2022-11-10T07:42:27;11.20;99.90
20528;DHT22;23612;50.894;10.700;2022-11-10T07:44:52;11.10;99.90
20528;DHT22;23612;50.894;10.700;2022-11-10T07:47:18;10.90;99.90
20528;DHT22;23612;50.894;10.700;2022-11-10T07:49:43;10.90;99.90
20528;DHT22;23612;50.894;10.700;2022-11-10T07:52:09;10.80;99.90
20528;DHT22;23612;50.894;10.700;2022-11-10T07:54:34;10.70;99.90
20528;DHT22;23612;50.894;10.700;2022-11-10T07:57:00;10.60;99.90
20528;DHT22;23612;50.894;10.700;2022-11-10T07:59:25;10.50;99.90
20528;DHT22;23612;50.894;10.700;2022-11-10T08:01:51;10.40;99.90
20528;DHT22;23612;50.894;10.700;2022-11-10T08:04:16;10.30;99.90
20528;DHT22;23612;50.894;10.700;2022-11-10T08:06:42;10.40;99.90
20528;DHT22;23612;50.894;10.700;2022-11-10T08:09:07;10.70;99.90
20528;DHT22;23612;50.894;10.700;2022-11-10T08:11:33;11.40;99.90
20528;DHT22;23612;50.894;10.700;2022-11-10T08:13:58;12.20;99.90
20528;DHT22;23612;50.894;10.700;2022-11-10T08:16:24;12.90;99.90
20528;DHT22;23612;50.894;10.700;2022-11-10T08:18:49;13.40;99.90
20528;DHT22;23612;50.894;10.700;2022-11-10T08:21:15;13.80;99.90
20528;DHT22;23612;50.894;10.700;2022-11-10T08:23:40;14.10;99.90
20528;DHT22;23612;50.894;10.700;2022-11-10T08:26:06;14.60;99.90
20528;DHT22;23612;50.894;10.700;2022-11-10T08:28:32;15.20;99.90
20528;DHT22;23612;50.894;10.700;2022-11-10T08:30:57;15.70;99.90
20528;DHT22;23612;50.894;10.700;2022-11-10T08:33:23;15.60;99.90
20528;DHT22;23612;50.894;10.700;2022-11-10T08:35:50;15.60;99.90
20528;DHT22;23612;50.894;10.700;2022-11-10T08:38:21;15.90;99.90
20528;DHT22;23612;50.894;10.700;2022-11-10T08:40:47;16.10;99.90
20528;DHT22;23612;50.894;10.700;2022-11-10T08:43:13;15.90;99.90
20528;DHT22;23612;50.894;10.700;2022-11-10T08:45:41;15.20;99.90
20528;DHT22;23612;50.894;10.700;2022-11-10T08:48:13;14.30;99.90
20528;DHT22;23612;50.894;10.700;2022-11-10T08:50:39;13.80;99.90
20528;DHT22;23612;50.894;10.700;2022-11-10T08:53:09;13.70;99.90
20528;DHT22;23612;50.894;10.700;2022-11-10T08:55:35;13.50;99.90
20528;DHT22;23612;50.894;10.700;2022-11-10T08:58:02;13.30;99.90
20528;DHT22;23612;50.894;10.700;2022-11-10T09:00:28;13.30;99.90
20528;DHT22;23612;50.894;10.700;2022-11-10T09:02:55;13.30;99.90
20528;DHT22;23612;50.894;10.700;2022-11-10T09:05:22;13.10;99.90
20528;DHT22;23612;50.894;10.700;2022-11-10T09:07:48;12.60;99.90
20528;DHT22;23612;50.894;10.700;2022-11-10T09:10:15;12.50;99.90
20528;DHT22;23612;50.894;10.700;2022-11-10T09:12:41;12.20;99.90
20528;DHT22;23612;50.894;10.700;2022-11-10T09:15:09;12.30;99.90
20528;DHT22;23612;50.894;10.700;2022-11-10T09:17:35;12.80;99.90
20528;DHT22;23612;50.894;10.700;2022-11-10T09:20:02;13.30;99.90
20528;DHT22;23612;50.894;10.700;2022-11-10T09:22:28;13.70;99.90
20528;DHT22;23612;50.894;10.700;2022-11-10T09:24:53;14.00;99.90
20528;DHT22;23612;50.894;10.700;2022-11-10T09:27:19;14.40;99.90
20528;DHT22;23612;50.894;10.700;2022-11-10T09:29:44;14.70;99.90
20528;DHT22;23612;50.894;10.700;2022-11-10T09:32:10;15.00;99.90
20528;DHT22;23612;50.894;10.700;2022-11-10T09:34:35;15.30;99.90
20528;DHT22;23612;50.894;10.700;2022-11-10T09:37:01;15.50;99.90
20528;DHT22;23612;50.894;10.700;2022-11-10T09:39:27;15.90;99.90
20528;DHT22;23612;50.894;10.700;2022-11-10T09:41:53;16.20;99.90
20528;DHT22;23612;50.894;10.700;2022-11-10T09:44:28;16.20;99.90
20528;DHT22;23612;50.894;10.700;2022-11-10T09:47:10;16.10;99.90
20528;DHT22;23612;50.894;10.700;2022-11-10T09:49:43;16.10;99.90
20528;DHT22;23612;50.894;10.700;2022-11-10T09:52:11;16.40;99.90
20528;DHT22;23612;50.894;10.700;2022-11-10T09:54:49;16.70;99.90
20528;DHT22;23612;50.894;10.700;2022-11-10T09:57:18;16.50;99.90
20528;DHT22;23612;50.894;10.700;2022-11-10T09:59:44;16.40;99.90
20528;DHT22;23612;50.894;10.700;2022-11-10T10:02:31;16.30;99.90
20528;DHT22;23612;50.894;10.700;2022-11-10T10:07:24;16.10;99.90
20528;DHT22;23612;50.894;10.700;2022-11-10T10:10:40;15.90;99.90
20528;DHT22;23612;50.894;10.700;2022-11-10T10:18:41;14.20;99.90
20528;DHT22;23612;50.894;10.700;2022-11-10T10:24:11;13.50;99.90
20528;DHT22;23612;50.894;10.700;2022-11-10T10:26:40;13.20;99.90
20528;DHT22;23612;50.894;10.700;2022-11-10T10:29:13;13.00;99.90
20528;DHT22;23612;50.894;10.700;2022-11-10T10:31:47;13.00;99.90
20528;DHT22;23612;50.894;10.700;2022-11-10T10:34:15;12.80;99.90
20528;DHT22;23612;50.894;10.700;2022-11-10T10:36:41;12.70;99.90
20528;DHT22;23612;50.894;10.700;2022-11-10T10:39:14;12.60;99.90
20528;DHT22;23612;50.894;10.700;2022-11-10T10:41:43;12.60;99.90
20528;DHT22;23612;50.894;10.700;2022-11-10T10:44:14;12.60;99.90
20528;DHT22;23612;50.894;10.700;2022-11-10T10:46:47;12.70;99.90
20528;DHT22;23612;50.894;10.700;2022-11-10T10:49:26;12.60;99.90
20528;DHT22;23612;50.894;10.700;2022-11-10T10:52:21;12.60;99.90
20528;DHT22;23612;50.894;10.700;2022-11-10T10:54:59;12.60;99.90
20528;DHT22;23612;50.894;10.700;2022-11-10T10:57:27;12.70;99.90
20528;DHT22;23612;50.894;10.700;2022-11-10T11:00:19;12.80;99.90
20528;DHT22;23612;50.894;10.700;2022-11-10T11:03:04;12.80;99.90
20528;DHT22;23612;50.894;10.700;2022-11-10T11:05:30;12.80;99.90
20528;DHT22;23612;50.894;10.700;2022-11-10T11:08:00;12.70;99.90
20528;DHT22;23612;50.894;10.700;2022-11-10T11:10:34;12.70;99.90
20528;DHT22;23612;50.894;10.700;2022-11-10T11:15:39;12.70;99.90
20528;DHT22;23612;50.894;10.700;2022-11-10T11:18:15;12.70;99.90
20528;DHT22;23612;50.894;10.700;2022-11-10T11:23:41;12.80;99.90
20528;DHT22;23612;50.894;10.700;2022-11-10T11:26:28;13.00;99.90
20528;DHT22;23612;50.894;10.700;2022-11-10T11:29:15;13.10;99.90
20528;DHT22;23612;50.894;10.700;2022-11-10T11:32:18;13.20;99.90
20528;DHT22;23612;50.894;10.700;2022-11-10T11:37:35;13.70;99.90
20528;DHT22;23612;50.894;10.700;2022-11-10T11:51:12;13.90;99.90
20528;DHT22;23612;50.894;10.700;2022-11-10T11:56:30;14.20;99.90
20528;DHT22;23612;50.894;10.700;2022-11-10T12:02:00;14.60;99.90
20528;DHT22;23612;50.894;10.700;2022-11-10T12:13:10;17.80;99.90
20528;DHT22;23612;50.894;10.700;2022-11-10T12:15:52;18.30;99.90
20528;DHT22;23612;50.894;10.700;2022-11-10T12:18:34;18.60;99.90
20528;DHT22;23612;50.894;10.700;2022-11-10T12:26:18;18.50;99.90
20528;DHT22;23612;50.894;10.700;2022-11-10T12:28:56;18.60;99.90
20528;DHT22;23612;50.894;10.700;2022-11-10T12:31:25;19.00;99.90
20528;DHT22;23612;50.894;10.700;2022-11-10T12:34:18;18.60;99.90
20528;DHT22;23612;50.894;10.700;2022-11-10T12:36:49;17.80;99.90
20528;DHT22;23612;50.894;10.700;2022-11-10T12:39:17;16.70;99.90
20528;DHT22;23612;50.894;10.700;2022-11-10T12:41:58;15.90;99.90
20528;DHT22;23612;50.894;10.700;2022-11-10T12:44:35;15.50;99.90
20528;DHT22;23612;50.894;10.700;2022-11-10T12:47:05;15.10;99.90
20528;DHT22;23612;50.894;10.700;2022-11-10T12:49:36;14.80;99.90
20528;DHT22;23612;50.894;10.700;2022-11-10T12:52:25;14.60;99.90
20528;DHT22;23612;50.894;10.700;2022-11-10T12:54:52;14.10;99.90
20528;DHT22;23612;50.894;10.700;2022-11-10T12:57:24;13.90;99.90
20528;DHT22;23612;50.894;10.700;2022-11-10T13:00:03;13.90;99.90
20528;DHT22;23612;50.894;10.700;2022-11-10T13:02:38;13.70;99.90
20528;DHT22;23612;50.894;10.700;2022-11-10T13:07:42;15.50;99.90
20528;DHT22;23612;50.894;10.700;2022-11-10T13:10:34;16.40;99.90
20528;DHT22;23612;50.894;10.700;2022-11-10T13:18:00;16.40;99.90
20528;DHT22;23612;50.894;10.700;2022-11-10T13:26:08;15.50;99.90
20528;DHT22;23612;50.894;10.700;2022-11-10T13:34:26;16.30;99.90
20528;DHT22;23612;50.894;10.700;2022-11-10T13:36:52;16.60;99.90
20528;DHT22;23612;50.894;10.700;2022-11-10T13:49:40;16.30;99.90
20528;DHT22;23612;50.894;10.700;2022-11-10T13:52:29;16.10;99.90
20528;DHT22;23612;50.894;10.700;2022-11-10T13:58:24;16.10;99.90
20528;DHT22;23612;50.894;10.700;2022-11-10T14:06:43;15.00;99.90
20528;DHT22;23612;50.894;10.700;2022-11-10T14:09:33;14.90;99.90
20528;DHT22;23612;50.894;10.700;2022-11-10T14:14:55;14.90;99.90
20528;DHT22;23612;50.894;10.700;2022-11-10T14:17:26;14.60;99.90
20528;DHT22;23612;50.894;10.700;2022-11-10T14:19:52;14.40;99.90
20528;DHT22;23612;50.894;10.700;2022-11-10T14:22:28;14.20;99.90
20528;DHT22;23612;50.894;10.700;2022-11-10T14:25:20;14.10;99.90
20528;DHT22;23612;50.894;10.700;2022-11-10T14:27:48;13.90;99.90
20528;DHT22;23612;50.894;10.700;2022-11-10T14:30:22;13.70;99.90
20528;DHT22;23612;50.894;10.700;2022-11-10T14:32:58;13.60;99.90
20528;DHT22;23612;50.894;10.700;2022-11-10T14:35:27;13.40;99.90
20528;DHT22;23612;50.894;10.700;2022-11-10T14:38:01;13.30;99.90
20528;DHT22;23612;50.894;10.700;2022-11-10T14:40:27;13.30;99.90
20528;DHT22;23612;50.894;10.700;2022-11-10T14:42:54;13.10;99.90
20528;DHT22;23612;50.894;10.700;2022-11-10T14:45:23;13.00;99.90
20528;DHT22;23612;50.894;10.700;2022-11-10T14:47:57;12.90;99.90
20528;DHT22;23612;50.894;10.700;2022-11-10T14:50:26;12.60;99.90
20528;DHT22;23612;50.894;10.700;2022-11-10T14:53:02;12.50;99.90
20528;DHT22;23612;50.894;10.700;2022-11-10T14:55:30;12.40;99.90
20528;DHT22;23612;50.894;10.700;2022-11-10T14:58:06;12.30;99.90
20528;DHT22;23612;50.894;10.700;2022-11-10T15:00:36;12.20;99.90
20528;DHT22;23612;50.894;10.700;2022-11-10T15:03:03;12.10;99.90
20528;DHT22;23612;50.894;10.700;2022-11-10T15:05:29;12.00;99.90
20528;DHT22;23612;50.894;10.700;2022-11-10T15:07:56;11.90;99.90
20528;DHT22;23612;50.894;10.700;2022-11-10T15:13:04;11.70;99.90
20528;DHT22;23612;50.894;10.700;2022-11-10T15:15:29;11.60;99.90
20528;DHT22;23612;50.894;10.700;2022-11-10T15:17:55;11.50;99.90
20528;DHT22;23612;50.894;10.700;2022-11-10T15:20:38;11.40;99.90
20528;DHT22;23612;50.894;10.700;2022-11-10T15:23:19;11.30;99.90
20528;DHT22;23612;50.894;10.700;2022-11-10T15:25:46;11.20;99.90
20528;DHT22;23612;50.894;10.700;2022-11-10T15:30:54;11.00;99.90
20528;DHT22;23612;50.894;10.700;2022-11-10T15:33:25;10.90;99.90
20528;DHT22;23612;50.894;10.700;2022-11-10T15:35:51;10.90;99.90
20528;DHT22;23612;50.894;10.700;2022-11-10T15:40:50;10.70;99.90
20528;DHT22;23612;50.894;10.700;2022-11-10T15:46:08;10.60;99.90
20528;DHT22;23612;50.894;10.700;2022-11-10T15:48:41;10.50;99.90
20528;DHT22;23612;50.894;10.700;2022-11-10T15:51:10;10.40;99.90
20528;DHT22;23612;50.894;10.700;2022-11-10T15:53:38;10.40;99.90
20528;DHT22;23612;50.894;10.700;2022-11-10T15:56:04;10.40;99.90
20528;DHT22;23612;50.894;10.700;2022-11-10T15:58:33;10.30;99.90
20528;DHT22;23612;50.894;10.700;2022-11-10T16:00:59;10.20;99.90
20528;DHT22;23612;50.894;10.700;2022-11-10T16:03:26;10.10;99.90
20528;DHT22;23612;50.894;10.700;2022-11-10T16:05:52;10.10;99.90
20528;DHT22;23612;50.894;10.700;2022-11-10T16:08:19;10.10;99.90
20528;DHT22;23612;50.894;10.700;2022-11-10T16:10:54;10.00;99.90
20528;DHT22;23612;50.894;10.700;2022-11-10T16:13:26;9.90;99.90
20528;DHT22;23612;50.894;10.700;2022-11-10T16:15:53;9.90;99.90
20528;DHT22;23612;50.894;10.700;2022-11-10T16:18:21;9.90;99.90
20528;DHT22;23612;50.894;10.700;2022-11-10T16:20:48;9.80;99.90
20528;DHT22;23612;50.894;10.700;2022-11-10T16:23:14;9.80;99.90
20528;DHT22;23612;50.894;10.700;2022-11-10T16:25:40;9.80;99.90
20528;DHT22;23612;50.894;10.700;2022-11-10T16:28:09;9.90;99.90
20528;DHT22;23612;50.894;10.700;2022-11-10T16:30:35;9.90;99.90
20528;DHT22;23612;50.894;10.700;2022-11-10T16:33:01;9.80;99.90
20528;DHT22;23612;50.894;10.700;2022-11-10T16:35:27;9.80;99.90
20528;DHT22;23612;50.894;10.700;2022-11-10T16:37:52;9.80;99.90
20528;DHT22;23612;50.894;10.700;2022-11-10T16:40:21;9.70;99.90
20528;DHT22;23612;50.894;10.700;2022-11-10T16:42:47;9.60;99.90
20528;DHT22;23612;50.894;10.700;2022-11-10T16:45:20;9.60;99.90
20528;DHT22;23612;50.894;10.700;2022-11-10T16:47:51;9.60;99.90
20528;DHT22;23612;50.894;10.700;2022-11-10T16:50:32;9.60;99.90
20528;DHT22;23612;50.894;10.700;2022-11-10T16:53:03;9.60;99.90
20528;DHT22;23612;50.894;10.700;2022-11-10T16:55:30;9.60;99.90
20528;DHT22;23612;50.894;10.700;2022-11-10T16:57:56;9.60;99.90
20528;DHT22;23612;50.894;10.700;2022-11-10T17:00:21;9.60;99.90
20528;DHT22;23612;50.894;10.700;2022-11-10T17:05:36;9.60;99.90
20528;DHT22;23612;50.894;10.700;2022-11-10T17:08:02;9.50;99.90
20528;DHT22;23612;50.894;10.700;2022-11-10T17:10:28;9.50;99.90
20528;DHT22;23612;50.894;10.700;2022-11-10T17:12:54;9.50;99.90
20528;DHT22;23612;50.894;10.700;2022-11-10T17:15:19;9.40;99.90
20528;DHT22;23612;50.894;10.700;2022-11-10T17:17:48;9.30;99.90
20528;DHT22;23612;50.894;10.700;2022-11-10T17:20:21;9.30;99.90